createdAt,value
2022-08-07T00:02:46.877Z,101243.13
2022-08-07T00:05:54.117Z,101236.88
2022-08-07T00:09:00.109Z,101235.44
2022-08-07T00:12:22.321Z,101228.03
2022-08-07T00:15:38.455Z,101237.50
2022-08-07T00:18:53.055Z,101240.22
2022-08-07T00:22:02.365Z,101241.38
2022-08-07T00:25:15.731Z,101237.03
2022-08-07T00:28:23.032Z,101237.81
2022-08-07T00:31:41.512Z,101231.09
2022-08-07T00:34:50.708Z,101233.97
2022-08-07T00:37:56.626Z,101223.69
2022-08-07T00:41:04.299Z,101234.97
2022-08-07T00:44:15.502Z,101228.03
2022-08-07T00:48:08.187Z,101235.28
2022-08-07T00:50:51.288Z,101240.06
2022-08-07T00:53:57.728Z,101248.59
2022-08-07T00:57:03.386Z,101251.63
2022-08-07T01:00:10.126Z,101255.28
2022-08-07T01:03:17.386Z,101253.91
2022-08-07T01:06:24.270Z,101263.44
2022-08-07T01:10:04.756Z,101254.63
2022-08-07T01:12:55.994Z,101251.16
2022-08-07T01:16:08.416Z,101258.94
2022-08-07T01:19:18.870Z,101248.44
2022-08-07T01:22:29.420Z,101248.41
2022-08-07T01:25:54.328Z,101248.25
2022-08-07T01:29:03.315Z,101243.97
2022-08-07T01:32:12.559Z,101232.50
2022-08-07T01:35:24.395Z,101240.19
2022-08-07T01:38:32.697Z,101250.91
2022-08-07T01:42:01.676Z,101245.84
2022-08-07T01:45:18.375Z,101249.03
2022-08-07T01:48:35.005Z,101238.28
2022-08-07T01:52:03.435Z,101232.38
2022-08-07T01:55:22.348Z,101226.94
2022-08-07T01:58:37.551Z,101225.25
2022-08-07T02:02:02.741Z,101223.50
2022-08-07T02:05:42.811Z,101226.25
2022-08-07T02:08:54.319Z,101211.13
2022-08-07T02:12:17.958Z,101210.97
2022-08-07T02:15:43.895Z,101216.53
2022-08-07T02:18:51.178Z,101217.28
2022-08-07T02:22:00.008Z,101209.97
2022-08-07T02:25:13.802Z,101203.19
2022-08-07T02:28:29.943Z,101192.81
2022-08-07T02:31:41.186Z,101184.81
2022-08-07T02:34:51.272Z,101186.53
2022-08-07T02:38:04.324Z,101180.97
2022-08-07T02:41:13.944Z,101173.50
2022-08-07T02:44:34.732Z,101178.31
2022-08-07T02:47:44.989Z,101178.63
2022-08-07T02:50:57.738Z,101177.06
2022-08-07T02:54:09.981Z,101189.13
2022-08-07T02:57:22.227Z,101186.28
2022-08-07T03:00:30.589Z,101181.88
2022-08-07T03:03:49.093Z,101175.03
2022-08-07T03:07:10.407Z,101169.97
2022-08-07T03:10:19.950Z,101163.47
2022-08-07T03:13:30.374Z,101162.91
2022-08-07T03:16:47.700Z,101170.13
2022-08-07T03:19:55.549Z,101171.03
2022-08-07T03:23:06.423Z,101163.16
2022-08-07T03:26:30.282Z,101162.78
2022-08-07T03:29:46.139Z,101167.00
2022-08-07T03:33:00.888Z,101163.66
2022-08-07T03:36:15.081Z,101157.63
2022-08-07T03:39:59.421Z,101151.91
2022-08-07T03:42:52.457Z,101156.13
2022-08-07T03:46:00.651Z,101165.50
2022-08-07T03:49:10.183Z,101169.22
2022-08-07T03:52:27.468Z,101170.81
2022-08-07T03:55:58.328Z,101174.66
2022-08-07T03:59:09.858Z,101183.31
2022-08-07T04:02:20.957Z,101177.06
2022-08-07T04:05:39.198Z,101187.38
2022-08-07T04:08:52.338Z,101178.59
2022-08-07T04:12:23.691Z,101183.22
2022-08-07T04:15:27.668Z,101191.06
2022-08-07T04:18:59.146Z,101185.31
2022-08-07T04:22:14.488Z,101195.75
2022-08-07T04:25:24.242Z,101200.47
2022-08-07T04:28:36.796Z,101214.31
2022-08-07T04:32:03.374Z,101228.06
2022-08-07T04:35:11.377Z,101229.53
2022-08-07T04:38:19.504Z,101234.34
2022-08-07T04:41:27.282Z,101239.88
2022-08-07T04:44:35.730Z,101242.69
2022-08-07T04:48:04.679Z,101256.94
2022-08-07T04:51:35.745Z,101257.84
2022-08-07T04:55:02.237Z,101287.06
2022-08-07T05:02:20.705Z,101305.84
2022-08-07T05:05:52.888Z,101312.72
2022-08-07T05:09:43.001Z,101321.56
2022-08-07T05:13:09.880Z,101324.94
2022-08-07T05:16:31.746Z,101328.50
2022-08-07T05:19:48.851Z,101335.75
2022-08-07T05:22:59.920Z,101356.59
2022-08-07T05:26:18.725Z,101354.78
2022-08-07T05:29:52.234Z,101352.94
2022-08-07T05:33:04.114Z,101367.31
2022-08-07T05:36:12.044Z,101382.78
2022-08-07T05:40:05.360Z,101384.16
2022-08-07T05:42:56.013Z,101384.00
2022-08-07T05:46:04.885Z,101385.81
2022-08-07T05:49:13.117Z,101399.31
2022-08-07T05:52:32.496Z,101417.81
2022-08-07T05:56:03.851Z,101399.06
2022-08-07T05:59:15.533Z,101395.94
2022-08-07T06:02:29.197Z,101402.13
2022-08-07T06:05:37.227Z,101410.34
2022-08-07T06:08:48.120Z,101419.84
2022-08-07T06:11:58.908Z,101412.09
2022-08-07T06:15:07.505Z,101393.69
2022-08-07T06:18:14.355Z,101373.72
2022-08-07T06:23:02.416Z,101381.13
2022-08-07T06:26:22.224Z,101390.25
2022-08-07T06:29:38.870Z,101389.72
2022-08-07T06:32:46.735Z,101384.31
2022-08-07T06:36:12.428Z,101380.94
2022-08-07T06:40:15.611Z,101375.50
2022-08-07T06:42:53.114Z,101370.09
2022-08-07T06:46:20.412Z,101370.38
2022-08-07T06:49:51.117Z,101380.06
2022-08-07T06:53:04.079Z,101375.81
2022-08-07T06:56:15.971Z,101371.41
2022-08-07T07:00:13.580Z,101365.59
2022-08-07T07:03:00.989Z,101364.44
2022-08-07T07:06:11.211Z,101372.00
2022-08-07T07:09:26.078Z,101367.13
2022-08-07T07:12:56.189Z,101373.00
2022-08-07T07:16:06.888Z,101357.09
2022-08-07T07:19:56.579Z,101364.22
2022-08-07T07:24:06.273Z,101366.94
2022-08-07T07:26:32.927Z,101355.22
2022-08-07T07:29:57.172Z,101360.84
2022-08-07T07:33:14.422Z,101357.31
2022-08-07T07:36:24.828Z,101356.94
2022-08-07T07:39:45.772Z,101348.00
2022-08-07T07:43:15.107Z,101337.38
2022-08-07T07:46:36.868Z,101344.00
2022-08-07T07:50:33.756Z,101342.34
2022-08-07T07:53:25.763Z,101345.16
2022-08-07T07:56:33.865Z,101345.06
2022-08-07T07:59:52.030Z,101337.94
2022-08-07T08:03:16.529Z,101345.59
2022-08-07T08:06:26.362Z,101345.75
2022-08-07T08:13:02.850Z,101341.47
2022-08-07T08:16:12.756Z,101344.34
2022-08-07T08:20:22.332Z,101336.78
2022-08-07T08:23:14.701Z,101336.00
2022-08-07T08:26:39.608Z,101330.72
2022-08-07T08:29:54.607Z,101335.75
2022-08-07T08:33:05.859Z,101332.91
2022-08-07T08:36:25.645Z,101345.63
2022-08-07T08:39:39.339Z,101347.50
2022-08-07T08:43:16.755Z,101357.25
2022-08-07T08:46:34.668Z,101364.00
2022-08-07T08:50:34.723Z,101374.63
2022-08-07T08:53:58.308Z,101367.25
2022-08-07T08:57:14.545Z,101362.72
2022-08-07T09:00:24.519Z,101366.16
2022-08-07T09:03:52.702Z,101358.19
2022-08-07T09:07:33.582Z,101361.03
2022-08-07T09:11:14.104Z,101353.25
2022-08-07T09:16:22.942Z,101352.53
2022-08-07T09:18:36.657Z,101338.72
2022-08-07T09:22:09.965Z,101341.34
2022-08-07T09:25:21.792Z,101336.88
2022-08-07T09:30:01.071Z,101335.38
2022-08-07T09:32:51.213Z,101338.97
2022-08-07T09:36:20.995Z,101337.38
2022-08-07T09:39:53.769Z,101346.66
2022-08-07T09:44:03.611Z,101339.63
2022-08-07T09:47:57.800Z,101339.03
2022-08-07T09:50:59.522Z,101347.84
2022-08-07T09:54:11.612Z,101344.75
2022-08-07T09:57:54.659Z,101343.03
2022-08-07T10:01:52.052Z,101346.97
2022-08-07T10:05:59.419Z,101335.81
2022-08-07T10:09:23.629Z,101328.38
2022-08-07T10:12:53.543Z,101327.16
2022-08-07T10:16:21.182Z,101321.91
2022-08-07T10:20:00.490Z,101315.13
2022-08-07T10:24:05.251Z,101312.84
2022-08-07T10:27:45.779Z,101307.63
2022-08-07T10:31:31.476Z,101302.38
2022-08-07T10:34:58.384Z,101295.63
2022-08-07T10:38:42.061Z,101295.41
2022-08-07T10:42:21.062Z,101292.31
2022-08-07T10:45:57.764Z,101299.22
2022-08-07T10:49:49.520Z,101299.84
2022-08-07T10:53:21.624Z,101294.09
2022-08-07T10:56:47.026Z,101301.34
2022-08-07T11:00:36.381Z,101294.81
2022-08-07T11:03:54.974Z,101297.28
2022-08-07T11:08:00.285Z,101295.91
2022-08-07T11:11:24.621Z,101294.66
2022-08-07T11:15:00.277Z,101286.84
2022-08-07T11:18:37.289Z,101278.97
2022-08-07T11:21:54.916Z,101279.78
2022-08-07T11:25:31.234Z,101267.38
2022-08-07T11:28:53.426Z,101264.50
2022-08-07T11:32:31.063Z,101261.31
2022-08-07T11:36:30.627Z,101255.69
2022-08-07T11:40:00.102Z,101252.78
2022-08-07T11:43:18.856Z,101249.88
2022-08-07T11:46:45.033Z,101259.00
2022-08-07T11:50:31.790Z,101257.34
2022-08-07T11:54:01.708Z,101251.31
2022-08-07T11:57:19.664Z,101251.09
2022-08-07T12:01:05.278Z,101251.56
2022-08-07T12:04:35.887Z,101247.69
2022-08-07T12:07:53.696Z,101252.72
2022-08-07T12:11:32.585Z,101243.53
2022-08-07T12:14:55.625Z,101250.56
2022-08-07T12:18:16.144Z,101244.50
2022-08-07T12:22:36.171Z,101237.84
2022-08-07T12:26:05.351Z,101229.13
2022-08-07T12:29:51.773Z,101224.41
2022-08-07T12:33:14.595Z,101228.19
2022-08-07T12:36:32.902Z,101215.66
2022-08-07T12:39:51.103Z,101215.47
2022-08-07T12:43:01.131Z,101211.31
2022-08-07T12:46:26.282Z,101206.28
2022-08-07T12:49:53.033Z,101204.53
2022-08-07T12:53:18.604Z,101203.00
2022-08-07T12:56:36.885Z,101193.38
2022-08-07T12:59:55.462Z,101183.00
2022-08-07T13:03:59.315Z,101181.09
2022-08-07T13:08:12.712Z,101186.75
2022-08-07T13:11:03.064Z,101176.72
2022-08-07T13:14:29.146Z,101162.72
2022-08-07T13:17:46.849Z,101164.81
2022-08-07T13:20:59.870Z,101159.75
2022-08-07T13:24:31.044Z,101159.34
2022-08-07T13:28:10.597Z,101156.41
2022-08-07T13:31:54.920Z,101139.50
2022-08-07T13:35:08.413Z,101139.47
2022-08-07T13:38:20.454Z,101134.13
2022-08-07T13:41:47.555Z,101131.69
2022-08-07T13:45:20.592Z,101128.31
2022-08-07T13:48:27.834Z,101123.97
2022-08-07T13:52:19.028Z,101123.88
2022-08-07T13:55:26.502Z,101114.16
2022-08-07T13:58:58.496Z,101109.47
2022-08-07T14:02:10.386Z,101104.28
2022-08-07T14:05:22.479Z,101108.19
2022-08-07T14:08:29.905Z,101107.41
2022-08-07T14:12:01.133Z,101096.28
2022-08-07T14:15:32.015Z,101099.63
2022-08-07T14:18:49.962Z,101108.09
2022-08-07T14:22:10.750Z,101103.72
2022-08-07T14:25:25.033Z,101093.75
2022-08-07T14:28:57.520Z,101091.41
2022-08-07T14:32:09.829Z,101083.63
2022-08-07T14:35:44.956Z,101087.06
2022-08-07T14:38:53.164Z,101085.25
2022-08-07T14:42:19.758Z,101077.72
2022-08-07T14:45:46.037Z,101070.84
2022-08-07T14:48:58.048Z,101065.59
2022-08-07T14:52:10.492Z,101071.13
2022-08-07T14:55:17.642Z,101069.75
2022-08-07T14:58:27.965Z,101064.97
2022-08-07T15:01:50.970Z,101077.81
2022-08-07T15:04:57.923Z,101070.56
2022-08-07T15:08:12.616Z,101076.91
2022-08-07T15:14:58.177Z,101084.84
2022-08-07T15:18:14.250Z,101078.50
2022-08-07T15:21:44.948Z,101083.22
2022-08-07T15:28:45.018Z,101079.63
2022-08-07T15:32:02.815Z,101089.63
2022-08-07T15:36:00.689Z,101097.22
2022-08-07T15:38:51.345Z,101100.88
2022-08-07T15:42:43.316Z,101099.59
2022-08-07T15:45:55.923Z,101097.03
2022-08-07T15:52:36.991Z,101093.47
2022-08-07T15:56:02.355Z,101091.97
2022-08-07T15:59:17.403Z,101100.56
2022-08-07T16:02:27.008Z,101096.41
2022-08-07T16:05:36.124Z,101090.19
2022-08-07T16:08:45.587Z,101073.53
2022-08-07T16:12:05.587Z,101072.28
2022-08-07T16:15:57.738Z,101062.78
2022-08-07T16:19:43.176Z,101062.84
2022-08-07T16:23:53.496Z,101050.59
2022-08-07T16:27:17.967Z,101052.03
2022-08-07T16:30:30.903Z,101051.09
2022-08-07T16:34:02.896Z,101061.53
2022-08-07T16:38:06.092Z,101051.53
2022-08-07T16:41:53.948Z,101039.03
2022-08-07T16:46:34.669Z,101027.03
2022-08-07T16:50:27.052Z,101028.75
2022-08-07T16:53:09.858Z,101032.03
2022-08-07T16:56:49.782Z,101031.84
2022-08-07T17:00:03.234Z,101032.09
2022-08-07T17:03:17.081Z,101033.09
2022-08-07T17:07:03.473Z,101037.63
2022-08-07T17:10:30.393Z,101038.28
2022-08-07T17:14:18.013Z,101024.38
2022-08-07T17:17:45.973Z,101027.28
2022-08-07T17:20:54.791Z,101023.00
2022-08-07T17:24:32.036Z,101014.22
2022-08-07T17:28:20.168Z,101013.09
2022-08-07T17:31:44.067Z,101019.34
2022-08-07T17:35:32.934Z,101016.19
2022-08-07T17:38:35.177Z,101021.31
2022-08-07T17:42:01.979Z,101015.38
2022-08-07T17:45:18.033Z,101016.97
2022-08-07T17:48:34.494Z,101027.94
2022-08-07T17:52:19.446Z,101029.88
2022-08-07T17:56:01.271Z,101029.44
2022-08-07T17:59:21.559Z,101030.88
2022-08-07T18:02:56.379Z,101032.81
2022-08-07T18:06:10.365Z,101037.38
2022-08-07T18:09:48.374Z,101028.94
2022-08-07T18:13:09.799Z,101041.00
2022-08-07T18:16:33.181Z,101043.13
2022-08-07T18:21:08.229Z,101040.25
2022-08-07T18:23:42.301Z,101039.44
2022-08-07T18:27:25.246Z,101041.75
2022-08-07T18:31:12.252Z,101042.00
2022-08-07T18:35:01.389Z,101052.59
2022-08-07T18:38:56.297Z,101051.13
2022-08-07T18:41:53.064Z,101060.00
2022-08-07T18:45:40.218Z,101073.00
2022-08-07T18:50:35.236Z,101090.94
2022-08-07T18:52:53.198Z,101102.38
2022-08-07T18:56:35.499Z,101109.34
2022-08-07T19:00:34.199Z,101115.97
2022-08-07T19:03:40.578Z,101126.19
2022-08-07T19:06:56.807Z,101134.16
2022-08-07T19:10:10.953Z,101139.09
2022-08-07T19:13:43.894Z,101140.94
2022-08-07T19:17:05.760Z,101143.69
2022-08-07T19:20:30.246Z,101153.44
2022-08-07T19:23:59.111Z,101162.63
2022-08-07T19:28:30.086Z,101155.78
2022-08-07T19:31:05.751Z,101148.84
2022-08-07T19:34:06.117Z,101147.41
2022-08-07T19:37:17.587Z,101157.06
2022-08-07T19:40:31.570Z,101152.84
2022-08-07T19:43:51.912Z,101158.63
2022-08-07T19:47:10.885Z,101165.59
2022-08-07T19:50:42.999Z,101166.84
2022-08-07T19:54:44.409Z,101164.31
2022-08-07T19:58:00.143Z,101151.81
2022-08-07T20:00:55.480Z,101146.03
2022-08-07T20:04:01.894Z,101137.50
2022-08-07T20:07:10.641Z,101138.31
2022-08-07T20:10:38.221Z,101134.09
2022-08-07T20:13:57.489Z,101133.16
2022-08-07T20:17:06.712Z,101127.53
2022-08-07T20:20:15.417Z,101118.22
2022-08-07T20:23:41.768Z,101122.91
2022-08-07T20:26:52.368Z,101109.59
2022-08-07T20:30:05.960Z,101102.22
2022-08-07T20:33:24.373Z,101106.06
2022-08-07T20:36:51.746Z,101094.69
2022-08-07T20:40:03.805Z,101093.56
2022-08-07T20:43:19.344Z,101090.50
2022-08-07T20:46:34.583Z,101083.63
2022-08-07T20:49:57.966Z,101093.88
2022-08-07T20:53:16.112Z,101095.44
2022-08-07T20:56:41.761Z,101091.59
2022-08-07T21:00:06.529Z,101097.09
2022-08-07T21:03:25.525Z,101107.94
2022-08-07T21:06:34.053Z,101106.69
2022-08-07T21:09:53.104Z,101120.16
2022-08-07T21:13:12.075Z,101118.06
2022-08-07T21:16:20.656Z,101116.75
2022-08-07T21:19:51.647Z,101112.13
2022-08-07T21:23:07.611Z,101113.13
2022-08-07T21:26:42.847Z,101125.09
2022-08-07T21:29:54.463Z,101136.72
2022-08-07T21:33:29.359Z,101139.34
2022-08-07T21:37:04.703Z,101144.31
2022-08-07T21:40:35.667Z,101151.25
2022-08-07T21:43:56.726Z,101156.16
2022-08-07T21:47:12.443Z,101149.91
2022-08-07T21:50:28.200Z,101153.53
2022-08-07T21:53:46.500Z,101154.03
2022-08-07T21:57:01.549Z,101159.94
2022-08-07T22:00:23.110Z,101157.22
2022-08-07T22:04:02.507Z,101162.16
2022-08-07T22:07:16.462Z,101165.06
2022-08-07T22:10:26.167Z,101171.63
2022-08-07T22:13:51.865Z,101178.88
2022-08-07T22:17:05.933Z,101187.53
2022-08-07T22:20:34.291Z,101194.44
2022-08-07T22:23:58.114Z,101198.91
2022-08-07T22:27:21.146Z,101195.00
2022-08-07T22:31:09.874Z,101199.81
2022-08-07T22:34:31.701Z,101203.38
2022-08-07T22:38:01.947Z,101208.19
2022-08-07T22:41:29.162Z,101203.56
2022-08-07T22:44:59.094Z,101201.44
2022-08-07T22:48:31.361Z,101195.91
2022-08-07T22:51:54.165Z,101198.81
2022-08-07T22:55:29.783Z,101196.72
2022-08-07T22:59:11.286Z,101198.22
2022-08-07T23:02:35.224Z,101190.31
2022-08-07T23:06:15.366Z,101198.97
2022-08-07T23:10:03.847Z,101191.25
2022-08-07T23:14:08.798Z,101194.25
2022-08-07T23:17:35.931Z,101196.25
2022-08-07T23:21:04.853Z,101211.34
2022-08-07T23:24:35.118Z,101208.06
2022-08-07T23:28:21.051Z,101196.47
2022-08-07T23:32:49.492Z,101200.75
2022-08-07T23:34:56.295Z,101194.75
2022-08-07T23:38:19.267Z,101200.81
2022-08-07T23:42:04.441Z,101211.59
2022-08-07T23:46:01.357Z,101207.38
2022-08-07T23:49:15.401Z,101219.69
2022-08-07T23:53:16.846Z,101220.22
2022-08-07T23:56:54.093Z,101206.09
